createdAt,value
2023-03-04T00:01:59.365Z,15.50
2023-03-04T00:05:03.629Z,14.90
2023-03-04T00:08:06.013Z,15.02
2023-03-04T00:11:08.556Z,14.35
2023-03-04T00:14:10.920Z,15.98
2023-03-04T00:17:13.603Z,15.98
2023-03-04T00:20:16.082Z,14.52
2023-03-04T00:23:18.592Z,15.43
2023-03-04T00:26:21.214Z,16.67
2023-03-04T00:29:23.558Z,16.45
2023-03-04T00:32:25.932Z,15.55
2023-03-04T00:35:28.287Z,15.77
2023-03-04T00:38:31.504Z,16.88
2023-03-04T00:41:34.094Z,16.20
2023-03-04T00:44:36.662Z,16.00
2023-03-04T00:47:39.244Z,15.40
2023-03-04T00:50:41.512Z,15.93
2023-03-04T00:53:43.925Z,16.65
2023-03-04T00:56:46.299Z,16.05
2023-03-04T00:59:48.663Z,15.95
2023-03-04T01:02:51.133Z,15.93
2023-03-04T01:05:53.692Z,14.50
2023-03-04T01:08:56.282Z,15.25
2023-03-04T01:11:58.662Z,14.50
2023-03-04T01:15:01.133Z,15.05
2023-03-04T01:18:03.634Z,14.13
2023-03-04T01:21:06.965Z,13.70
2023-03-04T01:24:09.492Z,13.63
2023-03-04T01:27:12.443Z,12.98
2023-03-04T01:30:14.942Z,12.38
2023-03-04T01:33:17.294Z,13.27
2023-03-04T01:36:19.725Z,13.65
2023-03-04T01:39:22.297Z,12.63
2023-03-04T01:42:28.537Z,13.35
2023-03-04T01:45:32.331Z,12.93
2023-03-04T01:48:37.680Z,12.05
2023-03-04T01:51:40.128Z,12.52
2023-03-04T01:54:42.662Z,12.60
2023-03-04T01:57:45.081Z,11.43
2023-03-04T02:00:47.614Z,12.73
2023-03-04T02:03:50.013Z,11.02
2023-03-04T02:06:52.677Z,11.25
2023-03-04T02:09:54.996Z,11.93
2023-03-04T02:12:57.543Z,11.00
2023-03-04T02:16:00.140Z,11.85
2023-03-04T02:19:06.798Z,10.18
2023-03-04T02:22:09.290Z,11.25
2023-03-04T02:25:21.598Z,11.15
2023-03-04T02:28:24.240Z,10.95
2023-03-04T02:31:44.204Z,10.70
2023-03-04T02:34:49.983Z,10.75
2023-03-04T02:37:52.316Z,10.38
2023-03-04T02:40:55.817Z,11.15
2023-03-04T02:43:58.392Z,11.32
2023-03-04T02:47:01.604Z,11.18
2023-03-04T02:50:04.491Z,10.10
2023-03-04T02:53:07.279Z,11.32
2023-03-04T02:56:09.644Z,11.13
2023-03-04T02:59:13.497Z,11.25
2023-03-04T03:02:15.988Z,12.35
2023-03-04T03:05:18.970Z,10.88
2023-03-04T03:08:21.520Z,11.47
2023-03-04T03:11:25.169Z,11.07
2023-03-04T03:14:30.440Z,11.93
2023-03-04T03:17:34.771Z,11.97
2023-03-04T03:20:37.951Z,12.32
2023-03-04T03:23:40.414Z,10.60
2023-03-04T03:26:42.767Z,10.23
2023-03-04T03:29:45.219Z,12.07
2023-03-04T03:32:47.631Z,11.13
2023-03-04T03:35:50.342Z,11.05
2023-03-04T03:38:52.862Z,10.23
2023-03-04T03:41:55.290Z,9.80
2023-03-04T03:44:57.730Z,11.00
2023-03-04T03:48:00.082Z,10.80
2023-03-04T03:51:02.679Z,10.43
2023-03-04T03:54:05.299Z,9.10
2023-03-04T03:57:07.789Z,9.73
2023-03-04T04:00:10.914Z,9.60
2023-03-04T04:03:17.360Z,9.52
2023-03-04T04:06:19.994Z,9.15
2023-03-04T04:09:22.562Z,9.55
2023-03-04T04:12:24.865Z,9.00
2023-03-04T04:15:27.219Z,8.52
2023-03-04T04:18:29.584Z,8.95
2023-03-04T04:21:31.978Z,8.63
2023-03-04T04:24:35.279Z,9.30
2023-03-04T04:27:37.734Z,9.35
2023-03-04T04:30:40.202Z,14.13
2023-03-04T04:33:42.552Z,14.23
2023-03-04T04:36:45.196Z,10.55
2023-03-04T04:39:47.562Z,11.23
2023-03-04T04:42:49.934Z,9.52
2023-03-04T04:45:52.897Z,9.93
2023-03-04T04:48:55.225Z,9.18
2023-03-04T04:51:57.480Z,9.48
2023-03-04T04:54:59.972Z,11.20
2023-03-04T04:58:02.667Z,12.82
2023-03-04T05:01:05.718Z,11.07
2023-03-04T05:04:08.314Z,16.83
2023-03-04T05:07:10.678Z,12.43
2023-03-04T05:10:12.999Z,12.25
2023-03-04T05:13:15.478Z,12.00
2023-03-04T05:16:18.236Z,11.57
2023-03-04T05:19:21.436Z,9.80
2023-03-04T05:22:23.883Z,10.43
2023-03-04T05:25:26.366Z,11.30
2023-03-04T05:28:28.873Z,10.38
2023-03-04T05:31:31.432Z,12.32
2023-03-04T05:34:33.859Z,11.00
2023-03-04T05:37:36.097Z,9.55
2023-03-04T05:40:39.129Z,11.52
2023-03-04T05:43:42.968Z,9.05
2023-03-04T05:46:45.405Z,8.93
2023-03-04T05:49:48.388Z,9.90
2023-03-04T05:52:51.556Z,9.65
2023-03-04T05:55:54.325Z,7.63
2023-03-04T05:59:00.408Z,8.57
2023-03-04T06:02:02.746Z,10.00
2023-03-04T06:05:06.006Z,8.45
2023-03-04T06:08:08.319Z,9.85
2023-03-04T06:11:10.841Z,8.50
2023-03-04T06:14:13.613Z,8.63
2023-03-04T06:17:16.121Z,8.60
2023-03-04T06:20:18.722Z,8.98
2023-03-04T06:23:21.050Z,6.97
2023-03-04T06:26:23.489Z,8.52
2023-03-04T06:29:26.294Z,8.88
2023-03-04T06:32:28.819Z,7.95
2023-03-04T06:35:31.719Z,8.32
2023-03-04T06:38:34.124Z,7.55
2023-03-04T06:41:36.615Z,8.10
2023-03-04T06:44:39.309Z,7.47
2023-03-04T06:47:41.663Z,7.78
2023-03-04T06:50:44.102Z,7.18
2023-03-04T06:53:47.781Z,7.97
2023-03-04T06:56:50.349Z,7.65
2023-03-04T06:59:53.830Z,7.80
2023-03-04T07:02:56.402Z,6.15
2023-03-04T07:05:58.840Z,7.70
2023-03-04T07:09:01.915Z,6.97
2023-03-04T07:12:05.082Z,8.57
2023-03-04T07:15:08.879Z,8.73
2023-03-04T07:21:15.284Z,8.68
2023-03-04T07:24:17.739Z,8.52
2023-03-04T07:27:20.404Z,8.20
2023-03-04T07:30:23.451Z,7.70
2023-03-04T07:33:25.913Z,8.30
2023-03-04T07:36:28.815Z,7.95
2023-03-04T07:39:31.362Z,7.75
2023-03-04T07:42:34.000Z,8.98
2023-03-04T07:45:41.989Z,9.77
2023-03-04T07:48:44.568Z,8.10
2023-03-04T07:51:46.888Z,8.85
2023-03-04T07:54:49.375Z,8.30
2023-03-04T07:57:51.869Z,8.10
2023-03-04T08:00:54.548Z,9.02
2023-03-04T08:03:57.382Z,8.60
2023-03-04T08:06:59.861Z,8.27
2023-03-04T08:10:02.417Z,8.02
2023-03-04T08:13:05.362Z,8.60
2023-03-04T08:16:09.092Z,8.73
2023-03-04T08:19:12.494Z,8.85
2023-03-04T08:22:14.995Z,7.93
2023-03-04T08:25:17.503Z,8.32
2023-03-04T08:28:20.042Z,8.85
2023-03-04T08:31:22.806Z,8.75
2023-03-04T08:34:27.745Z,8.75
2023-03-04T08:37:30.954Z,8.52
2023-03-04T08:40:33.756Z,9.38
2023-03-04T08:43:36.679Z,9.68
2023-03-04T08:46:41.518Z,10.07
2023-03-04T08:49:43.908Z,10.55
2023-03-04T08:52:46.422Z,9.43
2023-03-04T08:55:49.580Z,8.32
2023-03-04T08:58:52.376Z,9.87
2023-03-04T09:01:55.301Z,8.90
2023-03-04T09:04:57.979Z,8.57
2023-03-04T09:08:00.490Z,6.85
2023-03-04T09:11:03.274Z,6.95
2023-03-04T09:14:05.652Z,8.60
2023-03-04T09:17:08.303Z,5.70
2023-03-04T09:20:13.258Z,6.25
2023-03-04T09:23:16.389Z,3.30
2023-03-04T09:26:24.941Z,5.25
2023-03-04T09:29:27.360Z,4.00
2023-03-04T09:32:30.010Z,2.80
2023-03-04T09:35:32.686Z,2.50
2023-03-04T09:38:35.188Z,2.67
2023-03-04T09:41:50.007Z,2.75
2023-03-04T09:44:53.044Z,2.63
2023-03-04T09:47:56.906Z,1.95
2023-03-04T09:51:10.128Z,2.30
2023-03-04T09:54:33.851Z,2.35
2023-03-04T09:57:54.474Z,1.60
2023-03-04T10:01:05.109Z,2.53
2023-03-04T10:04:23.981Z,2.40
2023-03-04T10:07:36.263Z,1.83
2023-03-04T10:10:40.596Z,2.30
2023-03-04T10:14:24.766Z,1.80
2023-03-04T10:17:38.347Z,1.85
2023-03-04T10:21:04.346Z,0.98
2023-03-04T10:24:18.240Z,1.50
2023-03-04T10:27:20.657Z,1.08
2023-03-04T10:30:57.092Z,1.60
2023-03-04T10:33:59.484Z,1.50
2023-03-04T10:37:05.711Z,1.40
2023-03-04T10:40:19.790Z,1.02
2023-03-04T10:43:22.989Z,1.10
2023-03-04T10:46:26.953Z,2.40
2023-03-04T10:49:30.391Z,1.42
2023-03-04T10:52:47.870Z,0.88
2023-03-04T10:55:50.418Z,1.05
2023-03-04T10:58:53.147Z,1.20
2023-03-04T11:01:55.894Z,1.20
2023-03-04T11:05:10.496Z,0.75
2023-03-04T11:08:24.017Z,0.85
2023-03-04T11:11:47.492Z,0.68
2023-03-04T11:14:53.304Z,0.90
2023-03-04T11:18:00.231Z,0.80
2023-03-04T11:21:02.864Z,0.95
2023-03-04T11:24:25.671Z,0.80
2023-03-04T11:27:43.273Z,1.10
2023-03-04T11:30:56.472Z,0.80
2023-03-04T11:34:02.697Z,0.82
2023-03-04T11:37:22.263Z,1.20
2023-03-04T11:40:33.957Z,0.85
2023-03-04T11:43:39.002Z,0.80
2023-03-04T11:46:51.234Z,0.70
2023-03-04T11:49:57.151Z,1.00
2023-03-04T11:53:30.313Z,0.98
2023-03-04T11:56:39.082Z,1.17
2023-03-04T11:59:49.687Z,1.10
2023-03-04T12:02:58.025Z,1.15
2023-03-04T12:06:07.669Z,1.15
2023-03-04T12:09:34.097Z,0.90
2023-03-04T12:13:10.263Z,0.68
2023-03-04T12:16:12.703Z,1.00
2023-03-04T12:19:27.408Z,0.80
2023-03-04T12:22:45.700Z,1.05
2023-03-04T12:26:11.446Z,0.93
2023-03-04T12:29:34.489Z,0.65
2023-03-04T12:32:37.071Z,0.60
2023-03-04T12:35:46.119Z,0.73
2023-03-04T12:38:55.090Z,0.68
2023-03-04T12:42:10.459Z,0.60
2023-03-04T12:45:20.206Z,0.70
2023-03-04T12:48:33.513Z,0.70
2023-03-04T12:51:41.492Z,0.57
2023-03-04T12:54:47.178Z,1.00
2023-03-04T12:57:50.029Z,0.63
2023-03-04T13:01:06.562Z,0.82
2023-03-04T13:04:09.508Z,0.68
2023-03-04T13:08:04.168Z,0.80
2023-03-04T13:11:31.411Z,1.00
2023-03-04T13:14:34.479Z,1.98
2023-03-04T13:17:42.758Z,2.60
2023-03-04T13:20:45.855Z,2.25
2023-03-04T13:23:48.407Z,3.00
2023-03-04T13:26:51.208Z,1.42
2023-03-04T13:29:53.588Z,0.90
2023-03-04T13:32:55.975Z,1.70
2023-03-04T13:36:04.196Z,0.98
2023-03-04T13:39:15.880Z,2.65
2023-03-04T13:42:43.698Z,3.00
2023-03-04T13:45:46.316Z,0.88
2023-03-04T13:48:51.756Z,0.80
2023-03-04T13:51:54.378Z,1.20
2023-03-04T13:55:31.678Z,0.90
2023-03-04T13:58:34.647Z,1.63
2023-03-04T14:02:00.006Z,0.95
2023-03-04T14:05:03.523Z,1.02
2023-03-04T14:08:20.849Z,0.95
2023-03-04T14:11:42.838Z,1.08
2023-03-04T14:14:52.222Z,1.00
2023-03-04T14:17:58.908Z,6.35
2023-03-04T14:21:01.654Z,6.25
2023-03-04T14:24:11.430Z,4.22
2023-03-04T14:27:14.897Z,0.80
2023-03-04T14:30:31.825Z,1.70
2023-03-04T14:33:37.985Z,0.80
2023-03-04T14:36:44.028Z,5.70
2023-03-04T14:39:50.020Z,7.60
2023-03-04T14:42:58.139Z,3.25
2023-03-04T14:46:02.437Z,3.40
2023-03-04T14:49:04.980Z,1.17
2023-03-04T14:52:08.147Z,0.98
2023-03-04T14:55:22.488Z,1.30
2023-03-04T14:58:27.463Z,1.13
2023-03-04T15:01:33.483Z,1.25
2023-03-04T15:04:38.671Z,2.00
2023-03-04T15:07:42.156Z,3.10
2023-03-04T15:11:03.683Z,1.70
2023-03-04T15:14:07.241Z,0.93
2023-03-04T15:17:40.712Z,3.05
2023-03-04T15:20:43.084Z,2.72
2023-03-04T15:23:45.791Z,1.52
2023-03-04T15:26:50.297Z,1.95
2023-03-04T15:29:56.137Z,2.20
2023-03-04T15:32:59.357Z,1.98
2023-03-04T15:36:03.767Z,1.13
2023-03-04T15:39:06.371Z,1.10
2023-03-04T15:42:11.492Z,1.00
2023-03-04T15:45:25.257Z,0.93
2023-03-04T15:48:27.682Z,1.20
2023-03-04T15:51:30.558Z,1.83
2023-03-04T15:54:32.923Z,3.17
2023-03-04T15:57:35.327Z,2.97
2023-03-04T16:00:37.933Z,1.73
2023-03-04T16:03:42.160Z,1.35
2023-03-04T16:06:45.914Z,3.55
2023-03-04T16:09:52.444Z,1.52
2023-03-04T16:12:55.579Z,0.80
2023-03-04T16:15:58.071Z,1.60
2023-03-04T16:19:00.550Z,1.20
2023-03-04T16:22:03.346Z,1.33
2023-03-04T16:25:06.172Z,1.80
2023-03-04T16:28:11.007Z,1.77
2023-03-04T16:31:14.730Z,1.25
2023-03-04T16:34:17.161Z,1.02
2023-03-04T16:37:21.379Z,0.90
2023-03-04T16:40:28.820Z,0.80
2023-03-04T16:43:31.176Z,0.80
2023-03-04T16:46:33.657Z,2.38
2023-03-04T16:49:36.130Z,3.17
2023-03-04T16:52:38.622Z,2.22
2023-03-04T16:55:40.983Z,1.83
2023-03-04T16:58:44.027Z,1.63
2023-03-04T17:01:46.522Z,1.00
2023-03-04T17:04:50.990Z,2.50
2023-03-04T17:07:53.495Z,2.08
2023-03-04T17:10:55.882Z,2.08
2023-03-04T17:13:58.222Z,2.20
2023-03-04T17:17:01.228Z,1.10
2023-03-04T17:20:06.552Z,1.23
2023-03-04T17:23:08.860Z,1.20
2023-03-04T17:26:11.905Z,1.45
2023-03-04T17:29:14.233Z,1.03
2023-03-04T17:32:16.689Z,1.10
2023-03-04T17:35:19.302Z,1.40
2023-03-04T17:38:21.762Z,1.55
2023-03-04T17:41:25.099Z,1.58
2023-03-04T17:44:27.469Z,1.90
2023-03-04T17:47:29.794Z,2.53
2023-03-04T17:50:32.179Z,2.35
2023-03-04T17:53:34.675Z,2.80
2023-03-04T17:56:39.384Z,3.30
2023-03-04T17:59:41.830Z,3.47
2023-03-04T18:02:44.403Z,3.35
2023-03-04T18:05:46.814Z,2.67
2023-03-04T18:08:49.880Z,2.95
2023-03-04T18:11:52.333Z,2.30
2023-03-04T18:14:54.679Z,2.88
2023-03-04T18:17:57.036Z,2.28
2023-03-04T18:21:00.667Z,2.90
2023-03-04T18:24:03.413Z,3.65
2023-03-04T18:27:06.059Z,5.15
2023-03-04T18:30:09.870Z,5.65
2023-03-04T18:36:15.601Z,3.40
2023-03-04T18:39:18.286Z,3.33
2023-03-04T18:42:20.719Z,4.47
2023-03-04T18:45:23.309Z,7.47
2023-03-04T18:48:25.652Z,19.10
2023-03-04T18:51:28.089Z,19.38
2023-03-04T18:54:30.428Z,14.55
2023-03-04T18:57:32.955Z,10.45
2023-03-04T19:00:35.552Z,12.75
2023-03-04T19:03:38.763Z,10.40
2023-03-04T19:06:41.155Z,6.82
2023-03-04T19:09:43.527Z,7.45
2023-03-04T19:12:46.080Z,7.35
2023-03-04T19:15:49.996Z,6.55
2023-03-04T19:18:53.799Z,5.47
2023-03-04T19:21:56.246Z,5.75
2023-03-04T19:24:58.929Z,6.15
2023-03-04T19:28:01.370Z,5.53
2023-03-04T19:31:08.750Z,4.95
2023-03-04T19:34:11.271Z,5.00
2023-03-04T19:37:14.898Z,4.45
2023-03-04T19:40:17.633Z,4.43
2023-03-04T19:43:20.013Z,4.95
2023-03-04T19:46:22.522Z,5.35
2023-03-04T19:49:25.275Z,5.15
2023-03-04T19:52:27.717Z,4.05
2023-03-04T19:55:30.191Z,3.70
2023-03-04T19:58:32.680Z,3.50
2023-03-04T20:01:37.605Z,4.53
2023-03-04T20:04:40.201Z,4.97
2023-03-04T20:07:43.919Z,5.07
2023-03-04T20:13:48.487Z,8.60
2023-03-04T20:16:50.938Z,9.45
2023-03-04T20:19:53.338Z,9.48
2023-03-04T20:22:56.671Z,6.93
2023-03-04T20:25:59.033Z,7.10
2023-03-04T20:29:01.639Z,7.70
2023-03-04T20:32:04.138Z,8.80
2023-03-04T20:35:07.400Z,7.97
2023-03-04T20:38:09.885Z,7.60
2023-03-04T20:41:12.303Z,8.65
2023-03-04T20:44:14.718Z,7.53
2023-03-04T20:47:17.035Z,8.57
2023-03-04T20:50:19.365Z,8.63
2023-03-04T20:53:21.723Z,7.38
2023-03-04T20:56:24.593Z,7.93
2023-03-04T20:59:27.245Z,5.93
2023-03-04T21:02:29.723Z,7.90
2023-03-04T21:05:32.041Z,7.20
2023-03-04T21:08:34.484Z,7.47
2023-03-04T21:11:40.967Z,7.88
2023-03-04T21:14:45.062Z,6.95
2023-03-04T21:17:47.386Z,6.95
2023-03-04T21:20:52.159Z,6.72
2023-03-04T21:23:56.399Z,6.07
2023-03-04T21:26:59.187Z,5.97
2023-03-04T21:30:01.566Z,5.97
2023-03-04T21:33:05.323Z,6.53
2023-03-04T21:36:08.072Z,6.38
2023-03-04T21:39:18.943Z,4.93
2023-03-04T21:42:21.715Z,6.70
2023-03-04T21:45:24.145Z,6.33
2023-03-04T21:48:26.766Z,7.32
2023-03-04T21:51:29.323Z,8.13
2023-03-04T21:54:32.322Z,11.50
2023-03-04T21:57:34.754Z,6.82
2023-03-04T22:00:38.627Z,7.93
2023-03-04T22:03:42.222Z,7.07
2023-03-04T22:06:44.638Z,7.32
2023-03-04T22:09:47.262Z,6.80
2023-03-04T22:12:49.635Z,6.40
2023-03-04T22:15:52.142Z,6.80
2023-03-04T22:18:54.432Z,7.40
2023-03-04T22:21:56.805Z,7.35
2023-03-04T22:25:00.382Z,7.40
2023-03-04T22:28:03.189Z,6.80
2023-03-04T22:31:30.414Z,5.03
2023-03-04T22:34:32.787Z,7.05
2023-03-04T22:37:35.105Z,9.50
2023-03-04T22:40:37.442Z,7.65
2023-03-04T22:43:39.901Z,7.03
2023-03-04T22:46:42.820Z,7.38
2023-03-04T22:49:47.569Z,5.50
2023-03-04T22:52:50.186Z,5.88
2023-03-04T22:55:58.265Z,5.78
2023-03-04T22:59:00.680Z,5.85
2023-03-04T23:02:03.745Z,5.50
2023-03-04T23:05:06.353Z,4.63
2023-03-04T23:08:08.814Z,5.55
2023-03-04T23:11:16.296Z,5.40
2023-03-04T23:14:18.715Z,5.03
2023-03-04T23:17:21.111Z,5.50
2023-03-04T23:20:23.609Z,5.45
2023-03-04T23:23:26.016Z,5.32
2023-03-04T23:26:32.398Z,4.88
2023-03-04T23:29:34.681Z,5.55
2023-03-04T23:32:37.242Z,5.63
2023-03-04T23:35:39.714Z,5.25
2023-03-04T23:38:42.829Z,4.72
2023-03-04T23:41:45.504Z,4.30
2023-03-04T23:44:47.817Z,4.53
2023-03-04T23:47:50.272Z,4.57
2023-03-04T23:50:54.029Z,5.10
2023-03-04T23:53:56.612Z,4.88
2023-03-04T23:57:01.056Z,4.97
